地図

経路データ

SID SEASON NUMBER BASIN SUBBASIN NAME ISO_TIME NATURE LAT LON WMO_WIND WMO_PRES WMO_AGENCY TRACK_TYPE DIST2LAND LANDFALL IFLAG USA_AGENCY USA_ATCF_ID USA_LAT USA_LON USA_RECORD USA_STATUS USA_WIND USA_PRES USA_SSHS USA_R34_NE USA_R34_SE USA_R34_SW USA_R34_NW USA_R50_NE USA_R50_SE USA_R50_SW USA_R50_NW USA_R64_NE USA_R64_SE USA_R64_SW USA_R64_NW USA_POCI USA_ROCI USA_RMW USA_EYE TOKYO_LAT TOKYO_LON TOKYO_GRADE TOKYO_WIND TOKYO_PRES TOKYO_R50_DIR TOKYO_R50_LONG TOKYO_R50_SHORT TOKYO_R30_DIR TOKYO_R30_LONG TOKYO_R30_SHORT TOKYO_LAND CMA_LAT CMA_LON CMA_CAT CMA_WIND CMA_PRES HKO_LAT HKO_LON HKO_CAT HKO_WIND HKO_PRES NEWDELHI_LAT NEWDELHI_LON NEWDELHI_GRADE NEWDELHI_WIND NEWDELHI_PRES NEWDELHI_CI NEWDELHI_DP NEWDELHI_POCI REUNION_LAT REUNION_LON REUNION_TYPE REUNION_WIND REUNION_PRES REUNION_TNUM REUNION_CI REUNION_RMW REUNION_R34_NE REUNION_R34_SE REUNION_R34_SW REUNION_R34_NW REUNION_R50_NE REUNION_R50_SE REUNION_R50_SW REUNION_R50_NW REUNION_R64_NE REUNION_R64_SE REUNION_R64_SW REUNION_R64_NW BOM_LAT BOM_LON BOM_TYPE BOM_WIND BOM_PRES BOM_TNUM BOM_CI BOM_RMW BOM_R34_NE BOM_R34_SE BOM_R34_SW BOM_R34_NW BOM_R50_NE BOM_R50_SE BOM_R50_SW BOM_R50_NW BOM_R64_NE BOM_R64_SE BOM_R64_SW BOM_R64_NW BOM_ROCI BOM_POCI BOM_EYE BOM_POS_METHOD BOM_PRES_METHOD NADI_LAT NADI_LON NADI_CAT NADI_WIND NADI_PRES WELLINGTON_LAT WELLINGTON_LON WELLINGTON_WIND WELLINGTON_PRES DS824_LAT DS824_LON DS824_STAGE DS824_WIND DS824_PRES TD9636_LAT TD9636_LON TD9636_STAGE TD9636_WIND TD9636_PRES TD9635_LAT TD9635_LON TD9635_WIND TD9635_PRES TD9635_ROCI NEUMANN_LAT NEUMANN_LON NEUMANN_CLASS NEUMANN_WIND NEUMANN_PRES MLC_LAT MLC_LON MLC_CLASS MLC_WIND MLC_PRES USA_GUST BOM_GUST BOM_GUST_PER REUNION_GUST REUNION_GUST_PER USA_SEAHGT USA_SEARAD_NE USA_SEARAD_SE USA_SEARAD_SW USA_SEARAD_NW STORM_SPEED STORM_DIR
1929208N23090 1929 46 NI BB NOT_NAMED 1929-07-27 00:00:00 TS 22.6000 89.6000 main 0 0 _________O____ -1 22.6000 89.6000 TC 30 0 0
1929208N23090 1929 46 NI BB NOT_NAMED 1929-07-27 03:00:00 TS 22.6000 89.6000 main 0 0 _________PO___ -1 22.6000 89.6000 TC 30 22.6000 89.6000 1 0 0
1929208N23090 1929 46 NI BB NOT_NAMED 1929-07-27 06:00:00 TS 22.6000 89.5931 main 0 0 _________OP___ -1 22.6000 89.6000 TC 30 22.6001 89.5828 1 0 0
1929208N23090 1929 46 NI BB NOT_NAMED 1929-07-27 09:00:00 TS 22.6000 89.5882 main 0 0 _________PP___ -1 22.6000 89.6000 TC 30 22.6001 89.5725 1 0 0
1929208N23090 1929 46 NI BB NOT_NAMED 1929-07-27 12:00:00 TS 22.6000 89.5880 main 0 0 _________OP___ -1 22.6000 89.6000 TC 30 22.6001 89.5759 1 0 0
1929208N23090 1929 46 NI BB NOT_NAMED 1929-07-27 15:00:00 TS 22.6000 89.6000 main 0 0 _________PO___ -1 22.6000 89.6000 TC 30 22.6000 89.6000 1 0 90
1929208N23090 1929 46 NI BB NOT_NAMED 1929-07-27 18:00:00 TS 22.5999 89.6223 main 0 0 _________OP___ -1 22.6000 89.6000 TC 30 22.5998 89.6447 1 1 90
1929208N23090 1929 46 NI BB NOT_NAMED 1929-07-27 21:00:00 TS 22.5998 89.6562 main 0 0 _________PP___ -1 22.6000 89.6300 TC 30 22.5997 89.6825 1 0 0
1929208N23090 1929 46 NI BB NOT_NAMED 1929-07-28 00:00:00 TS 22.5999 89.6395 main 0 0 _________OP___ -1 22.6000 89.6000 TC 30 22.5997 89.6791 1 1 270
1929208N23090 1929 46 NI BB NOT_NAMED 1929-07-28 03:00:00 TS 22.6000 89.5262 main 0 0 _________PO___ -1 22.5999 89.4525 TC 30 22.6000 89.6000 1 3 270
1929208N23090 1929 46 NI BB NOT_NAMED 1929-07-28 06:00:00 TS 22.5980 89.3081 main 0 0 _________OP___ -1 22.6000 89.2000 TC 30 22.5960 89.4162 1 5 270
1929208N23090 1929 46 NI BB NOT_NAMED 1929-07-28 09:00:00 TS 22.5963 89.0137 main 0 0 _________PP___ -1 22.6000 88.8725 TC 30 22.5926 89.1549 1 6 270
1929208N23090 1929 46 NI BB NOT_NAMED 1929-07-28 12:00:00 TS 22.5964 88.6706 main 0 0 _________OP___ -1 22.6000 88.5000 TC 30 22.5928 88.8411 1 6 270
1929208N23090 1929 46 NI BB NOT_NAMED 1929-07-28 15:00:00 TS 22.5962 88.3250 main 0 0 _________PO___ -1 22.5924 88.1499 TC 30 22.6000 88.5000 1 6 271
1929208N23090 1929 46 NI BB NOT_NAMED 1929-07-28 18:00:00 TS 22.6091 87.9696 main 0 0 _________OP___ -1 22.6000 87.8000 TC 30 22.6182 88.1392 1 7 274
1929208N23090 1929 46 NI BB NOT_NAMED 1929-07-28 21:00:00 TS 22.6466 87.5914 main 0 0 _________PP___ -1 22.6501 87.4201 TC 30 22.6431 87.7626 1 7 277
1929208N23090 1929 46 NI BB NOT_NAMED 1929-07-29 00:00:00 TS 22.6857 87.2524 main 0 0 _________OP___ -1 22.7000 87.1000 TC 30 22.6714 87.4048 1 5 276
1929208N23090 1929 46 NI BB NOT_NAMED 1929-07-29 03:00:00 TS 22.6999 87.0100 main 0 0 _________PO___ -1 22.6999 86.9199 TC 30 22.7000 87.1000 1 4 274
1929208N23090 1929 46 NI BB NOT_NAMED 1929-07-29 06:00:00 TS 22.7122 86.8523 main 0 0 _________OP___ -1 22.7000 86.8000 TC 30 22.7245 86.9046 1 3 280
1929208N23090 1929 46 NI BB NOT_NAMED 1929-07-29 09:00:00 TS 22.7496 86.7137 main 0 0 _________PP___ -1 22.7499 86.6650 TC 30 22.7493 86.7624 1 3 286
1929208N23090 1929 46 NI BB NOT_NAMED 1929-07-29 12:00:00 TS 22.7873 86.5695 main 0 0 _________OP___ -1 22.8000 86.5000 TC 30 22.7745 86.6390 1 3 279
1929208N23090 1929 46 NI BB NOT_NAMED 1929-07-29 15:00:00 TS 22.8000 86.3787 main 0 0 _________PO___ -1 22.8001 86.2574 TC 30 22.8000 86.5000 1 4 273
1929208N23090 1929 46 NI BB NOT_NAMED 1929-07-29 18:00:00 TS 22.8105 86.1503 main 0 0 _________OP___ -1 22.8000 86.0000 TC 30 22.8209 86.3006 1 4 276
1929208N23090 1929 46 NI BB NOT_NAMED 1929-07-29 21:00:00 TS 22.8424 85.9399 main 0 0 _________PP___ -1 22.8424 85.8000 TC 30 22.8425 86.0799 1 4 281
1929208N23090 1929 46 NI BB NOT_NAMED 1929-07-30 00:00:00 TS 22.8839 85.7221 main 0 0 _________OP___ -1 22.9000 85.6000 TC 30 22.8678 85.8443 1 4 281
1929208N23090 1929 46 NI BB NOT_NAMED 1929-07-30 03:00:00 TS 22.9250 85.4787 main 0 0 _________PO___ -1 22.9500 85.3575 TC 30 22.9000 85.6000 1 5 281
1929208N23090 1929 46 NI BB NOT_NAMED 1929-07-30 06:00:00 TS 22.9715 85.2205 main 0 0 _________OP___ -1 23.0000 85.1000 TC 30 22.9429 85.3410 1 5 281
1929208N23090 1929 46 NI BB NOT_NAMED 1929-07-30 09:00:00 TS 23.0213 84.9563 main 0 0 _________PP___ -1 23.0500 84.8350 TC 30 22.9927 85.0776 1 5 282
1929208N23090 1929 46 NI BB NOT_NAMED 1929-07-30 12:00:00 TS 23.0730 84.7127 main 0 0 _________OP___ -1 23.1000 84.6000 TC 30 23.0461 84.8254 1 4 284
1929208N23090 1929 46 NI BB NOT_NAMED 1929-07-30 15:00:00 TS 23.1250 84.5175 main 0 0 _________PO___ -1 23.1499 84.4350 TC 30 23.1000 84.6000 1 3 287
1929208N23090 1929 46 NI BB NOT_NAMED 1929-07-30 18:00:00 TS 23.1728 84.3646 main 0 0 _________OP___ -1 23.2000 84.3000 TC 30 23.1457 84.4292 1 3 289
1929208N23090 1929 46 NI BB NOT_NAMED 1929-07-30 21:00:00 TS 23.2211 84.2211 main 0 0 _________PP___ -1 23.2500 84.1575 TC 30 23.1921 84.2848 1 3 290
1929208N23090 1929 46 NI BB NOT_NAMED 1929-07-31 00:00:00 TS 23.2713 84.0740 main 0 0 _________OP___ -1 23.3000 84.0000 TC 30 23.2426 84.1480 1 3 289
1929208N23090 1929 46 NI BB NOT_NAMED 1929-07-31 03:00:00 TS 23.3213 83.9037 main 0 0 _________PO___ -1 23.3425 83.8075 TC 30 23.3000 84.0000 1 4 288
1929208N23090 1929 46 NI BB NOT_NAMED 1929-07-31 06:00:00 TS 23.3798 83.7092 main 0 0 _________OP___ -1 23.4000 83.6000 TC 30 23.3597 83.8183 1 4 291
1929208N23090 1929 46 NI BB NOT_NAMED 1929-07-31 09:00:00 TS 23.4599 83.5149 main 0 0 _________PP___ -1 23.4924 83.4075 TC 30 23.4274 83.6223 1 4 295
1929208N23090 1929 46 NI BB NOT_NAMED 1929-07-31 12:00:00 TS 23.5533 83.3076 main 0 0 _________OP___ -1 23.6000 83.2000 TC 30 23.5065 83.4152 1 4 295
1929208N23090 1929 46 NI BB NOT_NAMED 1929-07-31 15:00:00 TS 23.6463 83.0750 main 0 0 _________PO___ -1 23.6925 82.9500 TC 30 23.6000 83.2000 1 5 296
1929208N23090 1929 46 NI BB NOT_NAMED 1929-07-31 18:00:00 TS 23.7485 82.8598 main 0 0 _________OP___ -1 23.8000 82.7000 TC 30 23.7098 82.9796 1 5 300
1929208N23090 1929 46 NI BB NOT_NAMED 1929-07-31 21:00:00 TS 23.8757 82.6483 main 0 0 _________PP___ -1 23.9400 82.4876 TC 30 23.8328 82.7555 1 5 305
1929208N23090 1929 46 NI BB NOT_NAMED 1929-08-01 00:00:00 TS 24.0095 82.4524 main 0 0 _________OP___ -1 24.1000 82.3000 TC 30 23.9643 82.5285 1 4 305
1929208N23090 1929 46 NI BB NOT_NAMED 1929-08-01 03:00:00 NR 24.1000 82.3000 main 0 __________O___ -1 TC 24.1000 82.3000 1 3 304

IBTrACS Databaseについて

本データベースは、米国NOAAが公開する1842年以降の世界の熱帯低気圧のベストトラックデータアーカイブInternational Best Track Archive for Climate Stewardship (IBTrACS)を、ウェブで閲覧しやすい形式に変換したものです。

最終更新日:2021-11-26